Terminal Aerodrome Forecast
Issued by NWS

Home | Current Version | Previous Version | Text Only | Print | Product List | Glossary On
Versions: 1 2 3 4 5 6 7 8 9 10 11 12 13 14 15 16 17 18 19 20 21 22 23
062
FTUS46 KLOX 310536
TAFBUR
TAF
KBUR 310536Z 3106/0106 19006KT P6SM SKC
     FM310800 VRB03KT P6SM SCT010
     FM311000 VRB05KT 3SM BR BKN007
     FM311700 15007KT P6SM SCT010
     FM312000 18009KT P6SM SKC
     FM312200 26012KT P6SM SCT015
     FM010400 26007KT P6SM BKN015=

USA.gov is the U.S. government's official web portal to all federal, state and local government web resources and services.